Time;durP1;ratioP1;P1;durP2;ratioP2;P2;SDS_P1;SDS_P2;PMS_P1;PMS_P2;Temp;Humidity;BMP_temperature;BMP_pressure;BME280_temperature;BME280_humidity;BME280_pressure;Samples;Min_cycle;Max_cycle;Signal;HPM_P1;HPM_P2
2021/12/12 07:36:16;;;;;;;35.67;17.23;;;;;;;-6.52;83.01;101128.97;5006910;28;106471;-70
2021/12/12 07:38:45;;;;;;;48.50;18.70;;;;;;;-6.43;82.49;101138.28;5005423;28;105842;-70
2021/12/12 07:41:12;;;;;;;35.37;16.27;;;;;;;-6.31;83.27;101135.38;5004311;28;106305;-70
2021/12/12 07:43:38;;;;;;;60.60;25.67;;;;;;;-6.25;82.30;101153.34;5004397;28;105841;-65
2021/12/12 07:46:05;;;;;;;20.03;12.77;;;;;;;-6.16;82.81;101145.34;5004273;28;106195;-67
2021/12/12 07:48:31;;;;;;;35.00;18.93;;;;;;;-6.10;81.91;101140.88;5003703;28;106076;-66
2021/12/12 07:50:58;;;;;;;28.90;13.67;;;;;;;-6.01;82.43;101138.91;5004794;28;106170;-66
2021/12/12 07:53:27;;;;;;;36.90;18.10;;;;;;;-5.88;82.62;101141.97;5004471;28;105906;-66
2021/12/12 07:55:54;;;;;;;34.50;18.43;;;;;;;-5.83;83.24;101145.28;5003618;28;106452;-66
2021/12/12 07:58:20;;;;;;;40.57;17.40;;;;;;;-5.83;82.64;101150.50;5002899;28;106341;-67
2021/12/12 08:00:48;;;;;;;36.80;17.43;;;;;;;-5.81;82.15;101151.31;5002129;28;106142;-66
2021/12/12 08:03:15;;;;;;;41.23;19.57;;;;;;;-5.67;82.93;101150.06;5001836;28;107183;-66
2021/12/12 08:05:42;;;;;;;57.90;20.20;;;;;;;-5.58;82.36;101155.00;5001829;28;105999;-66
2021/12/12 08:08:11;;;;;;;35.97;19.40;;;;;;;-5.44;82.79;101158.06;5002923;28;106327;-66
2021/12/12 08:10:39;;;;;;;50.50;19.87;;;;;;;-5.19;82.65;101152.16;5004265;28;106317;-66
2021/12/12 08:13:05;;;;;;;37.47;18.87;;;;;;;-4.85;83.06;101158.94;5003942;28;105826;-67
2021/12/12 08:15:31;;;;;;;41.53;20.73;;;;;;;-4.22;83.83;101161.25;5004138;28;105814;-66
2021/12/12 08:18:00;;;;;;;37.38;19.48;;;;;;;-3.51;84.07;101150.97;5004605;28;105870;-66
2021/12/12 08:20:27;;;;;;;39.25;18.83;;;;;;;-2.92;83.57;101153.97;5004024;28;106226;-65
2021/12/12 08:22:54;;;;;;;31.55;18.35;;;;;;;-2.33;84.09;101149.00;5003503;28;106792;-69
2021/12/12 08:25:21;;;;;;;34.88;17.25;;;;;;;-1.53;83.51;101163.88;5002548;28;106818;-66
2021/12/12 08:27:48;;;;;;;36.70;18.40;;;;;;;-0.63;84.09;101154.50;5004543;28;105813;-65
2021/12/12 08:30:16;;;;;;;37.13;18.65;;;;;;;0.16;83.19;101151.41;5003758;28;106523;-67
2021/12/12 08:32:45;;;;;;;34.28;17.55;;;;;;;0.51;80.28;101153.97;5003215;28;105993;-68
2021/12/12 08:35:13;;;;;;;32.50;17.35;;;;;;;0.46;78.93;101158.59;5002874;28;105917;-70
2021/12/12 08:37:40;;;;;;;38.63;18.17;;;;;;;0.66;79.47;101150.53;4999523;28;107096;-69
2021/12/12 08:40:07;;;;;;;29.98;16.70;;;;;;;1.25;80.23;101152.56;5002060;28;106273;-68
2021/12/12 08:42:33;;;;;;;33.95;19.02;;;;;;;1.88;80.67;101153.34;5001347;28;106388;-70
2021/12/12 08:45:00;;;;;;;41.00;19.67;;;;;;;2.33;79.85;101148.91;5001794;28;106053;-72
2021/12/12 08:47:26;;;;;;;37.78;19.30;;;;;;;2.84;77.85;101150.19;4989681;28;106079;-71
2021/12/12 08:49:53;;;;;;;35.25;19.77;;;;;;;3.02;75.96;101148.19;4989087;28;106233;-70
2021/12/12 08:52:29;;;;;;;37.42;18.83;;;;;;;3.13;75.04;101150.13;4988633;28;106054;-69
2021/12/12 08:54:55;;;;;;;38.33;19.55;;;;;;;3.49;76.29;101153.97;4988340;28;106591;-66
2021/12/12 08:57:39;;;;;;;39.33;19.85;;;;;;;4.04;75.29;101154.69;4989405;28;106076;-68
2021/12/12 09:00:10;;;;;;;36.35;20.13;;;;;;;5.06;74.63;101145.81;4988367;28;106332;-70
2021/12/12 09:02:36;;;;;;;42.15;21.33;;;;;;;5.66;73.56;101140.56;4987682;28;108342;-68
2021/12/12 09:05:08;;;;;;;42.33;20.35;;;;;;;6.16;72.73;101137.72;4988374;28;106413;-68
2021/12/12 09:07:44;;;;;;;37.03;19.63;;;;;;;6.87;72.94;101149.88;4988943;28;106138;-70
2021/12/12 09:10:25;;;;;;;35.10;19.08;;;;;;;7.75;72.69;101151.53;4921831;28;106261;-69
2021/12/12 09:13:05;;;;;;;52.85;25.92;;;;;;;9.71;74.08;101146.06;4948962;28;106644;-69
2021/12/12 09:15:46;;;;;;;;;;;;;;;11.62;72.92;101149.16;4949577;28;106154;-69
2021/12/12 09:18:18;;;;;;;38.05;21.02;;;;;;;13.31;70.02;101155.91;4950344;28;105990;-70
2021/12/12 09:20:55;;;;;;;35.30;20.40;;;;;;;14.67;68.95;101147.28;4948766;28;106327;-69
2021/12/12 09:23:37;;;;;;;41.97;22.77;;;;;;;16.16;67.58;101157.84;4949285;28;107108;-72
2021/12/12 09:26:10;;;;;;;37.47;22.58;;;;;;;17.22;64.08;101157.59;4949103;28;106337;-71
2021/12/12 09:28:47;;;;;;;41.35;24.20;;;;;;;18.00;59.38;101159.59;4950023;28;106414;-71
2021/12/12 09:31:24;;;;;;;40.47;23.67;;;;;;;18.42;58.60;101163.19;4949299;28;106031;-70
2021/12/12 09:34:02;;;;;;;38.95;24.08;;;;;;;18.91;56.48;101160.56;4949003;28;106837;-71
2021/12/12 09:36:42;;;;;;;39.10;22.38;;;;;;;19.59;56.87;101154.28;4945980;28;106163;-72
2021/12/12 09:39:24;;;;;;;38.80;22.70;;;;;;;20.63;56.63;101160.00;4944505;28;107073;-77
2021/12/12 09:42:10;;;;;;;41.45;24.88;;;;;;;21.59;53.22;101157.47;4950293;28;106403;-70
2021/12/12 09:45:03;;;;;;;34.70;22.80;;;;;;;21.88;50.09;101147.84;4950165;28;106495;-75
2021/12/12 09:48:15;;;;;;;35.13;24.33;;;;;;;22.68;49.86;101150.78;4950257;28;105983;-75
2021/12/12 09:51:14;;;;;;;36.22;22.42;;;;;;;23.69;49.12;101151.09;4950779;28;106469;-73
2021/12/12 09:53:58;;;;;;;36.42;21.67;;;;;;;24.33;45.07;101150.38;4950588;28;106187;-69
2021/12/12 09:57:01;;;;;;;32.22;21.60;;;;;;;24.77;43.40;101136.38;4949618;28;106459;-70
2021/12/12 10:00:03;;;;;;;34.72;22.27;;;;;;;25.44;40.76;101126.72;4949319;28;106060;-68
2021/12/12 10:02:53;;;;;;;35.22;21.02;;;;;;;26.16;38.87;101122.34;4947925;28;106128;-68
2021/12/12 10:05:49;;;;;;;35.17;23.23;;;;;;;26.62;35.50;101120.22;4945195;28;106150;-68
2021/12/12 10:08:52;;;;;;;36.97;22.70;;;;;;;27.15;33.49;101119.72;4949513;28;106101;-68
2021/12/12 10:11:43;;;;;;;35.75;24.05;;;;;;;27.80;31.24;101112.34;4949351;28;106701;-69
2021/12/12 10:14:16;;;;;;;32.67;23.77;;;;;;;28.31;29.33;101116.47;4949872;28;106154;-70
2021/12/12 10:17:00;;;;;;;39.63;24.38;;;;;;;28.64;27.39;101115.28;4949547;28;105892;-68
2021/12/12 10:19:44;;;;;;;35.88;24.27;;;;;;;28.83;25.76;101110.09;4947952;28;107930;-70
2021/12/12 10:22:09;;;;;;;38.45;25.15;;;;;;;28.73;25.08;101101.03;4949261;28;106090;-70
2021/12/12 10:24:40;;;;;;;35.17;23.88;;;;;;;27.84;24.48;101096.19;4950497;28;105850;-70
2021/12/12 10:27:37;;;;;;;39.42;26.35;;;;;;;27.07;24.06;101101.06;4950054;28;106585;-69
2021/12/12 10:30:18;;;;;;;38.05;25.25;;;;;;;26.66;24.28;101093.22;4948479;28;106371;-70
2021/12/12 10:33:31;;;;;;;36.30;24.33;;;;;;;26.33;23.56;101090.38;4949417;28;106151;-69
2021/12/12 10:36:02;;;;;;;35.63;24.77;;;;;;;26.45;24.02;101095.72;4943250;28;106130;-70
2021/12/12 10:38:32;;;;;;;37.13;26.13;;;;;;;26.73;22.92;101091.13;4949520;28;105984;-70
2021/12/12 10:41:13;;;;;;;39.75;27.88;;;;;;;27.49;22.26;101094.88;4949307;28;105951;-70
2021/12/12 10:43:43;;;;;;;42.20;28.48;;;;;;;28.20;21.62;101094.50;4949041;28;106003;-69
2021/12/12 10:46:20;;;;;;;38.67;29.10;;;;;;;29.08;20.28;101085.75;4950202;28;105837;-69
2021/12/12 10:49:00;;;;;;;43.53;30.10;;;;;;;29.58;19.30;101088.78;4947491;28;105950;-66
2021/12/12 10:51:30;;;;;;;40.05;28.55;;;;;;;29.87;18.86;101080.81;4948998;28;105742;-67
2021/12/12 10:54:01;;;;;;;;;;;;;;;30.47;18.21;101082.78;4949266;28;106304;-69
2021/12/12 10:56:35;;;;;;;35.83;26.08;;;;;;;31.12;18.65;101090.09;4950691;28;105933;-71
2021/12/12 10:59:10;;;;;;;37.72;27.77;;;;;;;30.59;18.71;101075.00;4949219;28;105967;-70
2021/12/12 11:01:42;;;;;;;37.47;26.60;;;;;;;29.18;19.27;101085.75;4948336;28;106325;-70
2021/12/12 11:04:13;;;;;;;40.22;29.05;;;;;;;26.74;20.70;101072.84;4948687;28;106287;-70
2021/12/12 11:06:47;;;;;;;42.15;28.73;;;;;;;25.21;21.77;101073.94;4949647;28;105920;-71
2021/12/12 11:09:44;;;;;;;38.28;29.52;;;;;;;24.43;21.98;101073.56;4948948;28;106961;-69
2021/12/12 11:12:26;;;;;;;38.22;28.23;;;;;;;24.63;22.65;101068.53;4947145;28;105880;-66
2021/12/12 11:14:59;;;;;;;39.72;29.42;;;;;;;24.37;22.09;101069.06;4948905;28;105864;-66
2021/12/12 11:17:36;;;;;;;42.70;29.90;;;;;;;24.84;21.53;101077.09;4949687;28;105837;-66
2021/12/12 11:20:07;;;;;;;38.50;28.40;;;;;;;25.57;20.68;101066.34;4948561;28;106281;-67
2021/12/12 11:22:42;;;;;;;44.72;30.20;;;;;;;26.46;19.79;101075.50;4948575;28;106242;-66
2021/12/12 11:25:17;;;;;;;43.33;30.52;;;;;;;26.29;19.31;101072.03;4907155;28;108180;-67
2021/12/12 11:27:47;;;;;;;48.03;32.70;;;;;;;25.84;19.70;101073.84;4948789;28;106050;-68
2021/12/12 11:30:21;;;;;;;48.85;32.17;;;;;;;25.91;19.81;101066.31;4948982;28;105908;-67
2021/12/12 11:32:46;;;;;;;48.53;32.17;;;;;;;26.30;19.60;101073.66;4948875;28;105952;-67
2021/12/12 11:35:15;;;;;;;45.60;32.25;;;;;;;27.00;19.12;101071.19;4947986;28;105930;-67
2021/12/12 11:37:55;;;;;;;51.13;34.30;;;;;;;28.30;17.76;101076.47;4948585;28;106293;-69
2021/12/12 11:40:29;;;;;;;49.40;33.27;;;;;;;28.89;17.30;101067.06;4948683;28;106022;-66
2021/12/12 11:43:12;;;;;;;50.92;34.92;;;;;;;28.79;17.07;101067.06;4948322;28;105952;-70
2021/12/12 11:45:43;;;;;;;53.72;36.05;;;;;;;29.87;16.68;101056.09;4948332;28;105891;-69
2021/12/12 11:48:28;;;;;;;53.25;36.00;;;;;;;30.18;16.31;101061.44;4948997;28;106114;-68
2021/12/12 11:51:17;;;;;;;55.50;37.45;;;;;;;30.87;16.05;101064.41;4948393;28;106184;-66
2021/12/12 11:53:55;;;;;;;58.67;40.13;;;;;;;30.31;15.86;101066.34;4943561;28;106111;-67
2021/12/12 11:56:32;;;;;;;66.97;42.97;;;;;;;29.07;16.24;101071.19;4944159;28;106031;-67
2021/12/12 11:59:15;;;;;;;61.17;40.80;;;;;;;27.72;17.14;101055.34;4939855;28;106175;-68
2021/12/12 12:01:47;;;;;;;60.75;40.65;;;;;;;26.01;18.62;101061.00;4937828;28;106228;-69
2021/12/12 12:04:12;;;;;;;65.40;42.90;;;;;;;24.98;19.53;101075.72;4936155;28;107574;-69
2021/12/12 12:06:56;;;;;;;64.28;43.58;;;;;;;23.92;19.81;101071.41;4943256;28;106161;-66
2021/12/12 12:09:41;;;;;;;66.70;40.55;;;;;;;23.40;20.45;101060.34;4948764;28;106025;-66
2021/12/12 12:12:41;;;;;;;66.10;42.85;;;;;;;23.14;20.29;101063.28;4948079;28;106276;-67
2021/12/12 12:15:12;;;;;;;65.00;41.05;;;;;;;23.02;20.75;101059.66;4947838;28;105967;-66
2021/12/12 12:18:20;;;;;;;60.63;39.65;;;;;;;24.53;19.35;101068.28;4947867;28;106014;-67
2021/12/12 12:21:30;;;;;;;61.35;39.03;;;;;;;23.86;19.29;101060.59;4939899;28;106264;-66
2021/12/12 12:24:12;;;;;;;68.57;41.10;;;;;;;24.65;18.77;101058.22;4909959;28;106185;-66
2021/12/12 12:26:51;;;;;;;73.18;46.80;;;;;;;22.20;20.34;101058.22;4946758;28;107248;-66
2021/12/12 12:29:28;;;;;;;75.95;46.63;;;;;;;19.12;22.67;101065.06;4951162;28;106259;-67
2021/12/12 12:32:12;;;;;;;75.88;46.90;;;;;;;18.06;24.53;101055.53;4952048;28;105952;-68
2021/12/12 12:34:49;;;;;;;75.65;45.28;;;;;;;19.61;23.43;101058.44;4951123;28;105801;-67
2021/12/12 12:37:52;;;;;;;77.18;45.53;;;;;;;21.23;21.11;101054.09;4950211;28;107083;-68
2021/12/12 12:40:55;;;;;;;76.88;46.75;;;;;;;22.30;20.00;101063.91;4950987;28;105998;-68
2021/12/12 12:43:57;;;;;;;77.47;45.75;;;;;;;23.06;19.51;101049.13;4951569;28;105944;-69
2021/12/12 12:47:00;;;;;;;82.00;48.17;;;;;;;23.68;19.11;101061.56;4951123;28;106201;-68
2021/12/12 12:49:44;;;;;;;87.68;48.15;;;;;;;24.42;18.36;101045.47;4950965;28;105797;-68
2021/12/12 12:52:28;;;;;;;76.18;45.25;;;;;;;23.87;18.75;101049.47;4950835;28;106042;-67
2021/12/12 12:54:59;;;;;;;72.60;43.92;;;;;;;22.48;19.90;101059.56;4950515;28;105903;-71
2021/12/12 12:57:30;;;;;;;73.53;43.08;;;;;;;21.87;20.39;101048.56;4951315;28;106291;-68
2021/12/12 13:00:03;;;;;;;75.60;45.60;;;;;;;22.03;20.26;101051.72;4950842;28;105753;-71
2021/12/12 13:02:54;;;;;;;74.10;44.90;;;;;;;22.45;19.66;101044.56;4950908;28;106215;-68
2021/12/12 13:05:56;;;;;;;73.53;45.70;;;;;;;22.95;19.52;101042.63;4951667;28;105992;-67
2021/12/12 13:08:49;;;;;;;80.97;47.50;;;;;;;23.31;19.09;101038.94;4951073;28;106031;-67
2021/12/12 13:11:53;;;;;;;79.78;46.53;;;;;;;23.07;19.41;101045.38;4950480;28;105879;-69
2021/12/12 13:14:30;;;;;;;83.35;49.45;;;;;;;22.87;19.35;101046.50;4950840;28;105958;-66
2021/12/12 13:17:09;;;;;;;87.43;51.13;;;;;;;22.79;19.13;101044.94;4951311;28;105848;-68
2021/12/12 13:19:35;;;;;;;81.32;49.80;;;;;;;22.54;19.68;101034.22;4950938;28;106128;-68
2021/12/12 13:22:14;;;;;;;85.45;49.25;;;;;;;22.07;19.86;101039.34;4950677;28;106587;-73
2021/12/12 13:24:58;;;;;;;81.83;46.37;;;;;;;21.47;19.99;101047.03;4950510;28;106025;-67
2021/12/12 13:27:53;;;;;;;82.55;46.60;;;;;;;20.35;21.01;101047.47;4951531;28;105983;-76
2021/12/12 13:30:28;;;;;;;78.32;45.97;;;;;;;20.16;21.26;101056.50;4951009;28;106199;-79
2021/12/12 13:33:06;;;;;;;75.38;44.97;;;;;;;20.05;21.30;101055.25;4950455;28;105844;-69
2021/12/12 13:35:45;;;;;;;80.85;46.90;;;;;;;19.71;21.43;101057.16;4950185;28;106518;-67
2021/12/12 13:38:22;;;;;;;72.75;43.67;;;;;;;19.14;21.93;101060.28;4950994;28;106327;-67
2021/12/12 13:41:18;;;;;;;76.85;43.88;;;;;;;18.62;22.26;101057.22;4950840;28;106018;-67
2021/12/12 14:27:57;;;;;;;86.40;42.72;;;;;;;6.71;34.35;101074.31;5002900;28;106099;-66
2021/12/12 14:30:28;;;;;;;86.82;43.42;;;;;;;5.86;35.96;101074.75;5004030;28;105840;-67
2021/12/12 14:33:01;;;;;;;86.72;42.67;;;;;;;5.35;37.12;101076.78;5002095;28;106327;-67
2021/12/12 14:35:35;;;;;;;85.90;44.15;;;;;;;4.60;38.25;101067.28;5002209;28;106390;-70
2021/12/12 14:38:01;;;;;;;92.07;43.55;;;;;;;3.92;39.23;101069.38;5002467;28;106296;-68
2021/12/12 14:40:31;;;;;;;88.20;43.78;;;;;;;3.31;40.20;101069.94;5002848;28;106237;-67
2021/12/12 14:43:05;;;;;;;99.57;48.67;;;;;;;2.86;41.76;101079.91;5002008;28;106355;-68
2021/12/12 14:45:37;;;;;;;97.47;47.17;;;;;;;2.52;42.23;101069.72;5002707;28;106049;-68
2021/12/12 14:48:06;;;;;;;96.70;48.28;;;;;;;2.19;42.83;101063.00;5004370;28;106098;-69
2021/12/12 14:50:48;;;;;;;92.40;46.30;;;;;;;1.84;43.18;101065.13;5004959;28;105891;-67
2021/12/12 14:53:17;;;;;;;100.38;47.28;;;;;;;1.60;43.90;101068.28;5002488;28;106283;-67
2021/12/12 14:56:01;;;;;;;105.45;48.25;;;;;;;1.33;44.25;101061.09;5003285;28;105940;-67
2021/12/12 14:58:30;;;;;;;99.80;47.85;;;;;;;1.12;44.86;101067.56;5003768;28;105942;-70
2021/12/12 15:01:04;;;;;;;103.70;50.80;;;;;;;0.84;45.41;101058.66;5004511;28;105865;-68
2021/12/12 15:03:38;;;;;;;106.53;49.33;;;;;;;0.57;45.68;101046.13;5003742;28;106470;-69
2021/12/12 15:06:15;;;;;;;101.35;50.08;;;;;;;0.33;46.17;101051.78;5004186;28;105889;-68
2021/12/12 15:08:49;;;;;;;106.30;51.67;;;;;;;0.14;46.93;101048.47;4999626;28;106174;-65
2021/12/12 15:11:25;;;;;;;112.20;53.38;;;;;;;-0.05;47.11;101051.22;4982437;28;105973;-68
2021/12/12 15:13:52;;;;;;;113.82;51.63;;;;;;;-0.22;47.34;101045.09;4982069;28;106051;-69
2021/12/12 15:16:28;;;;;;;103.05;51.28;;;;;;;-0.38;47.71;101055.50;4981921;28;105951;-69
2021/12/12 15:18:53;;;;;;;115.38;55.15;;;;;;;-0.47;48.43;101063.81;4981902;28;106421;-68
2021/12/12 15:21:28;;;;;;;117.53;53.67;;;;;;;-0.59;48.71;101067.91;4982605;28;106008;-66
2021/12/12 15:23:58;;;;;;;110.00;54.25;;;;;;;-0.68;48.89;101060.50;4982677;28;106101;-66
2021/12/12 15:26:37;;;;;;;105.85;53.42;;;;;;;-0.78;49.27;101059.25;4981487;28;107847;-67
2021/12/12 15:29:05;;;;;;;111.70;52.53;;;;;;;-0.90;49.58;101060.72;4982595;28;106083;-67
2021/12/12 15:31:30;;;;;;;113.18;55.30;;;;;;;-0.92;50.15;101075.63;4983036;28;106098;-67
2021/12/12 15:33:57;;;;;;;115.82;55.88;;;;;;;-0.95;50.17;101062.72;4981837;28;106767;-68
2021/12/12 15:36:29;;;;;;;110.07;52.58;;;;;;;-0.97;49.96;101064.53;4981895;28;106180;-68
2021/12/12 15:38:56;;;;;;;105.13;53.00;;;;;;;-0.99;50.58;101067.25;4970221;28;106053;-69
2021/12/12 15:41:24;;;;;;;117.38;56.47;;;;;;;-0.99;50.74;101074.25;4969163;28;106428;-69
2021/12/12 15:44:15;;;;;;;118.22;52.90;;;;;;;-0.99;50.94;101076.88;4968913;28;106240;-66
2021/12/12 15:46:44;;;;;;;113.72;51.03;;;;;;;-1.02;51.03;101076.06;4968369;28;106479;-69
2021/12/12 15:49:14;;;;;;;118.10;55.00;;;;;;;-1.05;50.63;101073.63;4968583;28;106014;-72
2021/12/12 15:51:41;;;;;;;131.15;57.70;;;;;;;-1.09;51.41;101072.06;4969562;28;106441;-67
2021/12/12 15:54:11;;;;;;;115.13;58.72;;;;;;;-1.13;51.56;101064.47;4969145;28;106345;-74
2021/12/12 15:56:59;;;;;;;122.53;57.30;;;;;;;-1.14;51.76;101081.91;4968017;28;105976;-73
2021/12/12 15:59:31;;;;;;;118.75;55.67;;;;;;;-1.14;51.46;101065.38;4968070;28;106188;-68
2021/12/12 16:02:16;;;;;;;118.22;57.30;;;;;;;-1.16;51.79;101068.06;4968762;28;106045;-72
2021/12/12 16:04:42;;;;;;;105.55;55.58;;;;;;;-1.12;52.32;101079.22;4969370;28;106233;-67
2021/12/12 16:07:19;;;;;;;115.72;54.47;;;;;;;-1.09;52.56;101076.47;4967935;28;106393;-69
2021/12/12 16:09:51;;;;;;;116.85;55.20;;;;;;;-1.07;52.03;101074.59;4967954;28;106156;-67
2021/12/12 16:12:19;;;;;;;114.88;53.67;;;;;;;-1.05;52.68;101072.78;4969032;28;106520;-68
2021/12/12 16:14:47;;;;;;;115.20;52.42;;;;;;;-1.09;52.64;101074.69;4968774;28;105990;-70
2021/12/12 16:17:17;;;;;;;112.15;50.97;;;;;;;-1.11;52.84;101078.28;4967822;28;106047;-69
2021/12/12 16:19:45;;;;;;;105.72;47.35;;;;;;;-1.16;52.88;101078.53;4968282;28;106393;-67
2021/12/12 16:22:34;;;;;;;106.32;48.65;;;;;;;-1.22;53.04;101071.81;4968564;28;106101;-67
2021/12/12 16:25:13;;;;;;;116.80;51.50;;;;;;;-1.23;53.07;101074.47;4968847;28;106312;-68
2021/12/12 16:27:41;;;;;;;107.20;49.88;;;;;;;-1.28;53.43;101071.25;4967956;28;106067;-67
2021/12/12 16:30:25;;;;;;;107.72;51.40;;;;;;;-1.29;53.09;101074.78;4966847;28;106833;-68
2021/12/12 16:32:55;;;;;;;110.60;52.22;;;;;;;-1.32;53.20;101080.16;4968644;28;106126;-70
2021/12/12 16:35:22;;;;;;;109.47;50.13;;;;;;;-1.39;53.70;101069.16;4968388;28;106193;-72
2021/12/12 16:37:52;;;;;;;109.25;52.72;;;;;;;-1.44;54.17;101066.72;4968133;28;105982;-71
2021/12/12 16:40:31;;;;;;;110.07;49.67;;;;;;;-1.46;54.11;101070.31;4967440;28;106488;-69
2021/12/12 16:43:01;;;;;;;120.32;51.67;;;;;;;-1.51;53.96;101073.16;4968658;28;106343;-69
2021/12/12 16:45:39;;;;;;;109.47;51.28;;;;;;;-1.57;54.08;101076.09;4967547;28;106069;-73
2021/12/12 16:48:21;;;;;;;109.55;51.17;;;;;;;-1.58;54.99;101079.59;4967930;28;107629;-71
2021/12/12 16:50:51;;;;;;;117.70;53.83;;;;;;;-1.63;54.37;101078.97;4966599;28;106027;-72
2021/12/12 16:53:27;;;;;;;124.88;56.70;;;;;;;-1.65;55.21;101071.19;4968612;28;105962;-69
2021/12/12 16:55:54;;;;;;;102.47;52.53;;;;;;;-1.65;54.71;101068.56;4967528;28;105892;-66
2021/12/12 16:58:26;;;;;;;129.75;59.28;;;;;;;-1.66;55.31;101068.66;4967147;28;106642;-68
2021/12/12 17:00:55;;;;;;;132.57;61.20;;;;;;;-1.69;55.16;101061.81;4967121;28;106034;-69
2021/12/12 17:03:26;;;;;;;130.23;62.70;;;;;;;-1.73;55.38;101065.47;4967782;28;106108;-71
2021/12/12 17:06:00;;;;;;;130.85;59.70;;;;;;;-1.79;54.95;101063.13;4967296;28;105996;-68
2021/12/12 17:11:22;;;;;;;112.63;51.60;;;;;;;-1.93;56.00;101074.19;4964854;28;106000;-69
2021/12/12 17:13:48;;;;;;;109.88;54.35;;;;;;;-2.00;56.25;101073.59;4967922;28;106038;-69
2021/12/12 17:16:14;;;;;;;115.65;55.22;;;;;;;-2.06;55.89;101064.28;4967385;28;106378;-68
2021/12/12 17:18:41;;;;;;;124.13;56.33;;;;;;;-2.13;56.66;101068.09;4967243;28;106008;-67
2021/12/12 17:21:13;;;;;;;100.68;50.47;;;;;;;-2.18;56.22;101066.59;4966577;28;106435;-68
2021/12/12 17:23:41;;;;;;;98.47;47.67;;;;;;;-2.21;56.45;101064.97;4967604;28;106099;-69
2021/12/12 17:26:09;;;;;;;107.70;51.72;;;;;;;-2.23;57.12;101061.56;4966818;28;106731;-67
2021/12/12 17:28:37;;;;;;;112.97;52.53;;;;;;;-2.30;56.71;101060.13;4966741;28;106241;-69
2021/12/12 17:31:08;;;;;;;112.18;52.42;;;;;;;-2.36;57.46;101050.81;4967349;28;106122;-70
2021/12/12 17:33:51;;;;;;;123.60;58.22;;;;;;;-2.41;57.22;101051.00;4967032;28;106058;-70
2021/12/12 17:36:18;;;;;;;143.10;61.63;;;;;;;-2.47;57.31;101048.66;4967309;28;106051;-68
2021/12/12 17:38:52;;;;;;;137.95;59.97;;;;;;;-2.53;57.72;101056.72;4966512;28;106464;-67
2021/12/12 17:41:33;;;;;;;127.10;61.38;;;;;;;-2.58;57.73;101056.09;4966728;28;106039;-70
2021/12/12 17:44:16;;;;;;;121.85;57.83;;;;;;;-2.62;58.20;101052.75;4967851;28;106383;-67
2021/12/12 17:47:03;;;;;;;130.05;58.45;;;;;;;-2.70;58.41;101056.63;4966727;28;106256;-69
2021/12/12 17:49:38;;;;;;;127.43;56.92;;;;;;;-2.77;57.94;101056.84;4967164;28;105891;-71
2021/12/12 17:52:54;;;;;;;128.18;57.70;;;;;;;-2.82;58.63;101045.75;4966890;28;105903;-72
2021/12/12 17:55:26;;;;;;;114.68;52.30;;;;;;;-2.85;58.64;101048.50;4965580;28;106199;-73
2021/12/12 17:57:57;;;;;;;107.90;54.70;;;;;;;-2.87;59.10;101044.25;4966926;28;105987;-70
2021/12/12 18:00:30;;;;;;;116.75;52.20;;;;;;;-2.92;58.57;101031.41;4966374;28;106134;-74
2021/12/12 18:02:58;;;;;;;110.97;53.40;;;;;;;-3.00;58.90;101016.06;4967102;28;106102;-76
2021/12/12 18:05:29;;;;;;;117.03;55.50;;;;;;;-3.03;59.25;101004.91;4967657;28;105953;-72
2021/12/12 18:07:59;;;;;;;105.82;50.45;;;;;;;-3.07;59.32;101005.06;4967165;28;106290;-76
2021/12/12 18:10:35;;;;;;;126.17;56.70;;;;;;;-3.10;59.48;101002.56;4966356;28;106576;-77
2021/12/12 18:13:10;;;;;;;114.32;56.50;;;;;;;-3.17;59.39;101008.97;4966956;28;106549;-72
2021/12/12 18:15:55;;;;;;;129.60;56.55;;;;;;;-3.26;59.72;101011.94;4967570;28;106046;-73
2021/12/12 18:18:41;;;;;;;116.13;54.95;;;;;;;-3.35;59.89;101015.72;4964539;28;105988;-77
